NOZ173 ESMS-EDDB
Flight info
| Callsign | NOZ173 |
|---|---|
| Flight time | 0h 38m |
| Altitude | 27000 |
| Route | SALLO M44 KOGIM M602 USEDU Z14 BEKBA T280 KETAP KETAP1R |
| Aircraft | B38M/M-SDE1FGHILORVWXY/HB1 |
Departure
| Time | 2026-05-05 17:39 |
|---|---|
| Airport | Malmö Sturup Airport (ESMS) |
Arrival
| Time | 2026-05-05 18:17 |
|---|---|
| Airport | Berlin Brandenburg Airport (EDDB) |
| Time | Latitude | Longitude | Altitude | Speed | Heading |
|---|---|---|---|---|---|
| 2026-05-05 17:12 | 55.54012 | 13.36786 | 237 ft | 0 kts | 353° |
| 2026-05-05 17:27 | 55.54007 | 13.36787 | 236 ft | 3 kts | 353° |
| 2026-05-05 17:27 | 55.53989 | 13.36791 | 235 ft | 3 kts | 353° |
| 2026-05-05 17:28 | 55.53971 | 13.36795 | 235 ft | 3 kts | 353° |
| 2026-05-05 17:28 | 55.53954 | 13.36795 | 234 ft | 2 kts | 32° |
| 2026-05-05 17:28 | 55.53944 | 13.36771 | 233 ft | 2 kts | 91° |
| 2026-05-05 17:28 | 55.53944 | 13.36769 | 233 ft | 0 kts | 97° |
| 2026-05-05 17:30 | 55.53943 | 13.36775 | 233 ft | 3 kts | 96° |
| 2026-05-05 17:30 | 55.53946 | 13.36879 | 234 ft | 15 kts | 84° |
| 2026-05-05 17:30 | 55.53960 | 13.37102 | 233 ft | 19 kts | 83° |
| 2026-05-05 17:31 | 55.53925 | 13.37261 | 236 ft | 16 kts | 160° |
| 2026-05-05 17:31 | 55.53798 | 13.37293 | 238 ft | 22 kts | 173° |
| 2026-05-05 17:31 | 55.53635 | 13.37326 | 234 ft | 25 kts | 173° |
| 2026-05-05 17:31 | 55.53447 | 13.37362 | 234 ft | 29 kts | 174° |
| 2026-05-05 17:32 | 55.53245 | 13.37400 | 234 ft | 30 kts | 174° |
| 2026-05-05 17:32 | 55.53035 | 13.37442 | 236 ft | 31 kts | 173° |
| 2026-05-05 17:32 | 55.52817 | 13.37484 | 235 ft | 32 kts | 174° |
| 2026-05-05 17:32 | 55.52594 | 13.37528 | 236 ft | 31 kts | 173° |
| 2026-05-05 17:33 | 55.52424 | 13.37614 | 237 ft | 23 kts | 149° |
| 2026-05-05 17:33 | 55.52318 | 13.37768 | 236 ft | 13 kts | 116° |
| 2026-05-05 17:33 | 55.52336 | 13.37880 | 241 ft | 9 kts | 27° |
| 2026-05-05 17:33 | 55.52359 | 13.37884 | 241 ft | 0 kts | 354° |
| 2026-05-05 17:34 | 55.52363 | 13.37883 | 241 ft | 0 kts | 353° |
| 2026-05-05 17:38 | 55.52478 | 13.37860 | 242 ft | 51 kts | 353° |
| 2026-05-05 17:38 | 55.53097 | 13.37733 | 243 ft | 125 kts | 353° |
| 2026-05-05 17:38 | 55.54156 | 13.37515 | 359 ft | 174 kts | 352° |
| 2026-05-05 17:39 | 55.55411 | 13.37251 | 1118 ft | 184 kts | 352° |
| 2026-05-05 17:39 | 55.56694 | 13.36969 | 2048 ft | 195 kts | 354° |
| 2026-05-05 17:39 | 55.58122 | 13.36831 | 2694 ft | 218 kts | 4° |
| 2026-05-05 17:39 | 55.59323 | 13.37246 | 2970 ft | 245 kts | 18° |
| 2026-05-05 17:40 | 55.59443 | 13.37316 | 3007 ft | 246 kts | 19° |
| 2026-05-05 17:40 | 55.60975 | 13.38700 | 4082 ft | 248 kts | 35° |
| 2026-05-05 17:40 | 55.62256 | 13.40891 | 4887 ft | 268 kts | 53° |
| 2026-05-05 17:41 | 55.63066 | 13.43957 | 5646 ft | 284 kts | 76° |
| 2026-05-05 17:41 | 55.63148 | 13.47503 | 6547 ft | 296 kts | 98° |
| 2026-05-05 17:41 | 55.62519 | 13.51045 | 7312 ft | 310 kts | 117° |
| 2026-05-05 17:41 | 55.61211 | 13.54136 | 8064 ft | 319 kts | 139° |
| 2026-05-05 17:42 | 55.59366 | 13.56262 | 9095 ft | 317 kts | 159° |
| 2026-05-05 17:42 | 55.57286 | 13.57531 | 10064 ft | 317 kts | 169° |
| 2026-05-05 17:42 | 55.55106 | 13.58260 | 10803 ft | 323 kts | 179° |
| 2026-05-05 17:42 | 55.52834 | 13.58015 | 11207 ft | 336 kts | 191° |
| 2026-05-05 17:43 | 55.50437 | 13.57524 | 11530 ft | 356 kts | 190° |
| 2026-05-05 17:43 | 55.47904 | 13.57036 | 11829 ft | 374 kts | 189° |
| 2026-05-05 17:43 | 55.45262 | 13.56532 | 12223 ft | 388 kts | 189° |
| 2026-05-05 17:43 | 55.42559 | 13.56019 | 12847 ft | 393 kts | 189° |
| 2026-05-05 17:44 | 55.39866 | 13.55222 | 13540 ft | 394 kts | 195° |
| 2026-05-05 17:44 | 55.37171 | 13.54231 | 14176 ft | 397 kts | 195° |
| 2026-05-05 17:44 | 55.34453 | 13.53264 | 14793 ft | 400 kts | 195° |
| 2026-05-05 17:44 | 55.31719 | 13.52308 | 15396 ft | 403 kts | 195° |
| 2026-05-05 17:45 | 55.28955 | 13.51351 | 15993 ft | 406 kts | 195° |
| 2026-05-05 17:45 | 55.26206 | 13.50403 | 16562 ft | 409 kts | 195° |
| 2026-05-05 17:45 | 55.23404 | 13.49439 | 17143 ft | 412 kts | 195° |
| 2026-05-05 17:45 | 55.20581 | 13.48470 | 17703 ft | 415 kts | 195° |
| 2026-05-05 17:46 | 55.17736 | 13.47494 | 18246 ft | 418 kts | 195° |
| 2026-05-05 17:46 | 55.14874 | 13.46514 | 18729 ft | 420 kts | 195° |
| 2026-05-05 17:46 | 55.11992 | 13.45529 | 19211 ft | 423 kts | 195° |
| 2026-05-05 17:46 | 55.09093 | 13.44539 | 19685 ft | 426 kts | 195° |
| 2026-05-05 17:47 | 55.06176 | 13.43545 | 20152 ft | 428 kts | 195° |
| 2026-05-05 17:47 | 55.03241 | 13.42546 | 20585 ft | 431 kts | 195° |
| 2026-05-05 17:47 | 55.00272 | 13.41628 | 21006 ft | 435 kts | 194° |
| 2026-05-05 17:47 | 54.97280 | 13.40721 | 21458 ft | 437 kts | 195° |
| 2026-05-05 17:48 | 54.94276 | 13.39804 | 21901 ft | 440 kts | 195° |
| 2026-05-05 17:48 | 54.91254 | 13.38882 | 22341 ft | 442 kts | 195° |
| 2026-05-05 17:48 | 54.88215 | 13.37954 | 22774 ft | 444 kts | 195° |
| 2026-05-05 17:48 | 54.85157 | 13.37022 | 23199 ft | 447 kts | 195° |
| 2026-05-05 17:49 | 54.82124 | 13.36099 | 23597 ft | 449 kts | 195° |
| 2026-05-05 17:49 | 54.79029 | 13.35159 | 23953 ft | 451 kts | 195° |
| 2026-05-05 17:49 | 54.75933 | 13.34219 | 24312 ft | 453 kts | 195° |
| 2026-05-05 17:49 | 54.72827 | 13.33278 | 24692 ft | 454 kts | 195° |
| 2026-05-05 17:50 | 54.69706 | 13.32335 | 25058 ft | 455 kts | 195° |
| 2026-05-05 17:50 | 54.66581 | 13.31391 | 25422 ft | 457 kts | 195° |
| 2026-05-05 17:50 | 54.63452 | 13.30448 | 25827 ft | 456 kts | 195° |
| 2026-05-05 17:50 | 54.60328 | 13.29507 | 26308 ft | 454 kts | 196° |
| 2026-05-05 17:51 | 54.57228 | 13.28575 | 26762 ft | 452 kts | 196° |
| 2026-05-05 17:51 | 54.54128 | 13.27646 | 26913 ft | 451 kts | 196° |
| 2026-05-05 17:51 | 54.51044 | 13.26723 | 26896 ft | 448 kts | 195° |
| 2026-05-05 17:51 | 54.47971 | 13.25803 | 26910 ft | 448 kts | 195° |
| 2026-05-05 17:52 | 54.44905 | 13.24887 | 26910 ft | 448 kts | 195° |
| 2026-05-05 17:52 | 54.41830 | 13.23969 | 26914 ft | 448 kts | 195° |
| 2026-05-05 17:52 | 54.38759 | 13.23055 | 26914 ft | 448 kts | 195° |
| 2026-05-05 17:52 | 54.35732 | 13.22155 | 26913 ft | 448 kts | 195° |
| 2026-05-05 17:53 | 54.32662 | 13.21243 | 26905 ft | 448 kts | 195° |
| 2026-05-05 17:53 | 54.29590 | 13.20332 | 26906 ft | 448 kts | 195° |
| 2026-05-05 17:53 | 54.26521 | 13.19424 | 26890 ft | 448 kts | 195° |
| 2026-05-05 17:53 | 54.23433 | 13.18511 | 26904 ft | 449 kts | 195° |
| 2026-05-05 17:54 | 54.20343 | 13.17598 | 26907 ft | 453 kts | 195° |
| 2026-05-05 17:54 | 54.17230 | 13.16681 | 26901 ft | 454 kts | 195° |
| 2026-05-05 17:54 | 54.14112 | 13.15764 | 26904 ft | 454 kts | 195° |
| 2026-05-05 17:54 | 54.10995 | 13.14849 | 26902 ft | 454 kts | 195° |
| 2026-05-05 17:55 | 54.07880 | 13.13935 | 26898 ft | 454 kts | 195° |
| 2026-05-05 17:55 | 54.04766 | 13.13023 | 26899 ft | 454 kts | 195° |
| 2026-05-05 17:55 | 54.01648 | 13.12112 | 26870 ft | 455 kts | 194° |
| 2026-05-05 17:55 | 53.98521 | 13.11198 | 26895 ft | 456 kts | 194° |
| 2026-05-05 17:56 | 53.96449 | 13.10593 | 26899 ft | 456 kts | 194° |
| 2026-05-05 17:56 | 53.93315 | 13.09681 | 26896 ft | 456 kts | 194° |
| 2026-05-05 17:56 | 53.89170 | 13.08475 | 26896 ft | 456 kts | 194° |
| 2026-05-05 17:56 | 53.86041 | 13.07567 | 26898 ft | 456 kts | 194° |
| 2026-05-05 17:57 | 53.82909 | 13.06660 | 26888 ft | 456 kts | 194° |
| 2026-05-05 17:57 | 53.79781 | 13.05755 | 26892 ft | 456 kts | 194° |
| 2026-05-05 17:57 | 53.77665 | 13.05143 | 26864 ft | 456 kts | 194° |
| 2026-05-05 17:57 | 53.74535 | 13.04240 | 26881 ft | 457 kts | 194° |
| 2026-05-05 17:58 | 53.71397 | 13.03336 | 26882 ft | 457 kts | 194° |
| 2026-05-05 17:58 | 53.68267 | 13.02435 | 26884 ft | 457 kts | 194° |
| 2026-05-05 17:58 | 53.65175 | 13.01546 | 26887 ft | 457 kts | 194° |
| 2026-05-05 17:58 | 53.62045 | 13.00649 | 26880 ft | 457 kts | 194° |
| 2026-05-05 17:59 | 53.58916 | 12.99752 | 26884 ft | 457 kts | 194° |
| 2026-05-05 17:59 | 53.55739 | 12.98844 | 26881 ft | 457 kts | 194° |
| 2026-05-05 17:59 | 53.52602 | 12.97948 | 26864 ft | 457 kts | 193° |
| 2026-05-05 17:59 | 53.49540 | 12.97076 | 26851 ft | 447 kts | 193° |
| 2026-05-05 18:00 | 53.46494 | 12.96208 | 26594 ft | 440 kts | 193° |
| 2026-05-05 18:00 | 53.43476 | 12.95349 | 26249 ft | 440 kts | 193° |
| 2026-05-05 18:00 | 53.40455 | 12.94491 | 25858 ft | 441 kts | 193° |
| 2026-05-05 18:00 | 53.37428 | 12.93633 | 25468 ft | 442 kts | 193° |
| 2026-05-05 18:01 | 53.34395 | 12.92775 | 25039 ft | 441 kts | 193° |
| 2026-05-05 18:01 | 53.31373 | 12.91921 | 24622 ft | 440 kts | 193° |
| 2026-05-05 18:01 | 53.28361 | 12.91070 | 24192 ft | 438 kts | 192° |
| 2026-05-05 18:01 | 53.25361 | 12.90224 | 23789 ft | 436 kts | 192° |
| 2026-05-05 18:02 | 53.22372 | 12.89383 | 23377 ft | 434 kts | 192° |
| 2026-05-05 18:02 | 53.19399 | 12.88548 | 22903 ft | 432 kts | 192° |
| 2026-05-05 18:02 | 53.16433 | 12.87715 | 22433 ft | 430 kts | 192° |
| 2026-05-05 18:02 | 53.13491 | 12.86891 | 21972 ft | 428 kts | 192° |
| 2026-05-05 18:03 | 53.10596 | 12.86080 | 21523 ft | 426 kts | 192° |
| 2026-05-05 18:03 | 53.07681 | 12.85265 | 21059 ft | 424 kts | 192° |
| 2026-05-05 18:03 | 53.04744 | 12.84446 | 20452 ft | 421 kts | 191° |
| 2026-05-05 18:03 | 53.01907 | 12.83654 | 19853 ft | 417 kts | 191° |
| 2026-05-05 18:04 | 52.99054 | 12.82860 | 19270 ft | 414 kts | 191° |
| 2026-05-05 18:04 | 52.96223 | 12.82073 | 18689 ft | 411 kts | 191° |
| 2026-05-05 18:04 | 52.93410 | 12.81292 | 18115 ft | 409 kts | 191° |
| 2026-05-05 18:04 | 52.90605 | 12.80514 | 17465 ft | 407 kts | 191° |
| 2026-05-05 18:05 | 52.87830 | 12.79746 | 16827 ft | 403 kts | 191° |
| 2026-05-05 18:05 | 52.85083 | 12.78986 | 16197 ft | 399 kts | 191° |
| 2026-05-05 18:05 | 52.82356 | 12.78232 | 15585 ft | 395 kts | 191° |
| 2026-05-05 18:05 | 52.79649 | 12.77606 | 14964 ft | 392 kts | 184° |
| 2026-05-05 18:06 | 52.76932 | 12.78028 | 14376 ft | 395 kts | 168° |
| 2026-05-05 18:06 | 52.75175 | 12.79039 | 13974 ft | 396 kts | 159° |
| 2026-05-05 18:06 | 52.71799 | 12.81264 | 13161 ft | 394 kts | 161° |
| 2026-05-05 18:06 | 52.69246 | 12.82862 | 12514 ft | 392 kts | 161° |
| 2026-05-05 18:07 | 52.66688 | 12.84433 | 11884 ft | 391 kts | 161° |
| 2026-05-05 18:07 | 52.64140 | 12.85982 | 11260 ft | 390 kts | 162° |
| 2026-05-05 18:07 | 52.61597 | 12.87519 | 10649 ft | 389 kts | 161° |
| 2026-05-05 18:07 | 52.59082 | 12.89037 | 10036 ft | 377 kts | 161° |
| 2026-05-05 18:08 | 52.56663 | 12.90497 | 9424 ft | 364 kts | 161° |
| 2026-05-05 18:08 | 52.54332 | 12.91903 | 8898 ft | 350 kts | 162° |
| 2026-05-05 18:08 | 52.52086 | 12.93254 | 8400 ft | 337 kts | 162° |
| 2026-05-05 18:08 | 52.49917 | 12.94559 | 7891 ft | 327 kts | 161° |
| 2026-05-05 18:09 | 52.47806 | 12.95825 | 7406 ft | 318 kts | 161° |
| 2026-05-05 18:09 | 52.45767 | 12.97045 | 7019 ft | 307 kts | 161° |
| 2026-05-05 18:09 | 52.43794 | 12.98225 | 6653 ft | 296 kts | 161° |
| 2026-05-05 18:09 | 52.41906 | 12.99352 | 6297 ft | 289 kts | 161° |
| 2026-05-05 18:10 | 52.40003 | 13.00485 | 5907 ft | 286 kts | 161° |
| 2026-05-05 18:10 | 52.38163 | 13.01579 | 5516 ft | 282 kts | 160° |
| 2026-05-05 18:10 | 52.36345 | 13.02660 | 5192 ft | 273 kts | 160° |
| 2026-05-05 18:10 | 52.34594 | 13.03700 | 4892 ft | 263 kts | 160° |
| 2026-05-05 18:11 | 52.32900 | 13.04705 | 4578 ft | 255 kts | 160° |
| 2026-05-05 18:11 | 52.31258 | 13.05678 | 4286 ft | 246 kts | 160° |
| 2026-05-05 18:11 | 52.29696 | 13.06646 | 4083 ft | 236 kts | 152° |
| 2026-05-05 18:11 | 52.28466 | 13.08350 | 4030 ft | 233 kts | 123° |
| 2026-05-05 18:12 | 52.27897 | 13.10784 | 4000 ft | 231 kts | 94° |
| 2026-05-05 18:12 | 52.28121 | 13.13353 | 3996 ft | 231 kts | 66° |
| 2026-05-05 18:12 | 52.28845 | 13.15655 | 4018 ft | 221 kts | 63° |
| 2026-05-05 18:12 | 52.29473 | 13.17887 | 3983 ft | 214 kts | 67° |
| 2026-05-05 18:13 | 52.30031 | 13.20146 | 3716 ft | 214 kts | 68° |
| 2026-05-05 18:13 | 52.30566 | 13.22403 | 3455 ft | 213 kts | 69° |
| 2026-05-05 18:13 | 52.31099 | 13.24648 | 3215 ft | 209 kts | 68° |
| 2026-05-05 18:13 | 52.31617 | 13.26828 | 2959 ft | 203 kts | 68° |
| 2026-05-05 18:14 | 52.32103 | 13.28870 | 2715 ft | 181 kts | 68° |
| 2026-05-05 18:14 | 52.32552 | 13.30760 | 2461 ft | 175 kts | 69° |
| 2026-05-05 18:14 | 52.32984 | 13.32584 | 2220 ft | 169 kts | 68° |
| 2026-05-05 18:14 | 52.33401 | 13.34342 | 1987 ft | 163 kts | 68° |
| 2026-05-05 18:15 | 52.33797 | 13.36004 | 1785 ft | 153 kts | 69° |
| 2026-05-05 18:15 | 52.34182 | 13.37625 | 1567 ft | 152 kts | 68° |
| 2026-05-05 18:15 | 52.34559 | 13.39215 | 1373 ft | 148 kts | 68° |
| 2026-05-05 18:15 | 52.34923 | 13.40783 | 1178 ft | 147 kts | 69° |
| 2026-05-05 18:16 | 52.35288 | 13.42376 | 1021 ft | 151 kts | 68° |
| 2026-05-05 18:16 | 52.35683 | 13.43979 | 810 ft | 150 kts | 67° |
| 2026-05-05 18:16 | 52.36072 | 13.45549 | 624 ft | 151 kts | 69° |
| 2026-05-05 18:16 | 52.36441 | 13.47153 | 334 ft | 150 kts | 68° |
| 2026-05-05 18:17 | 52.36815 | 13.48695 | 199 ft | 142 kts | 70° |
| 2026-05-05 18:17 | 52.37134 | 13.50062 | 161 ft | 108 kts | 69° |
| 2026-05-05 18:17 | 52.37295 | 13.50739 | 159 ft | 27 kts | 76° |
| 2026-05-05 18:17 | 52.37301 | 13.51018 | 161 ft | 22 kts | 96° |
| 2026-05-05 18:18 | 52.37286 | 13.51198 | 164 ft | 9 kts | 99° |
| 2026-05-05 18:18 | 52.37277 | 13.51281 | 164 ft | 0 kts | 100° |
| 2026-05-05 18:18 | 52.37277 | 13.51283 | 164 ft | 1 kts | 100° |
| 2026-05-05 18:18 | 52.37272 | 13.51326 | 164 ft | 5 kts | 101° |
| 2026-05-05 18:19 | 52.37219 | 13.51415 | 162 ft | 17 kts | 162° |
| 2026-05-05 18:19 | 52.37097 | 13.51473 | 160 ft | 19 kts | 176° |
| 2026-05-05 18:19 | 52.37009 | 13.51329 | 158 ft | 21 kts | 250° |
| 2026-05-05 18:19 | 52.36956 | 13.51100 | 158 ft | 22 kts | 249° |
| 2026-05-05 18:20 | 52.36898 | 13.50855 | 158 ft | 24 kts | 248° |
| 2026-05-05 18:20 | 52.36854 | 13.50673 | 158 ft | 7 kts | 244° |
| 2026-05-05 18:20 | 52.36810 | 13.50655 | 158 ft | 8 kts | 161° |
| 2026-05-05 18:20 | 52.36774 | 13.50679 | 158 ft | 0 kts | 159° |